createdAt,value
2023-02-13T00:02:00.398Z,24.40
2023-02-13T00:04:28.524Z,39.70
2023-02-13T00:06:56.698Z,47.50
2023-02-13T00:09:24.880Z,44.30
2023-02-13T00:11:57.557Z,47.40
2023-02-13T00:14:26.341Z,50.30
2023-02-13T00:16:55.010Z,42.80
2023-02-13T00:19:24.223Z,47.60
2023-02-13T00:21:52.910Z,39.90
2023-02-13T00:24:22.011Z,41.30
2023-02-13T00:26:50.298Z,32.60
2023-02-13T00:29:20.616Z,35.30
2023-02-13T00:31:48.943Z,35.70
2023-02-13T00:36:50.201Z,33.00
2023-02-13T00:39:18.567Z,37.10
2023-02-13T00:41:50.268Z,34.80
2023-02-13T00:44:18.630Z,28.80
2023-02-13T00:46:46.871Z,35.00
2023-02-13T00:55:40.904Z,29.10
2023-02-13T00:58:17.525Z,32.20
2023-02-13T01:00:47.391Z,29.60
2023-02-13T01:03:16.352Z,34.20
2023-02-13T01:05:46.035Z,28.50
2023-02-13T01:08:14.715Z,25.40
2023-02-13T01:10:43.191Z,28.50
2023-02-13T01:13:11.599Z,28.20
2023-02-13T01:15:41.341Z,28.00
2023-02-13T01:18:17.173Z,28.20
2023-02-13T01:20:46.133Z,24.90
2023-02-13T01:30:14.638Z,26.60
2023-02-13T01:32:45.403Z,26.20
2023-02-13T01:35:15.224Z,26.20
2023-02-13T01:37:43.430Z,29.10
2023-02-13T01:40:13.077Z,27.40
2023-02-13T01:42:41.259Z,27.50
2023-02-13T01:45:24.925Z,22.30
2023-02-13T01:48:11.773Z,26.60
2023-02-13T01:50:43.768Z,23.70
2023-02-13T01:53:19.739Z,25.40
2023-02-13T01:55:52.479Z,25.30
2023-02-13T01:58:24.627Z,23.80
2023-02-13T02:00:52.816Z,23.00
2023-02-13T02:03:27.543Z,27.30
2023-02-13T02:05:57.513Z,23.40
2023-02-13T02:08:26.704Z,25.90
2023-02-13T02:10:56.415Z,26.90
2023-02-13T02:13:24.935Z,28.40
2023-02-13T02:15:53.329Z,28.40
2023-02-13T02:18:23.526Z,25.10
2023-02-13T02:21:09.768Z,24.40
2023-02-13T02:23:50.747Z,24.30
2023-02-13T02:26:59.886Z,25.50
2023-02-13T02:29:34.143Z,24.30
2023-02-13T02:32:08.612Z,24.20
2023-02-13T02:35:05.890Z,24.30
2023-02-13T02:37:56.365Z,21.20
2023-02-13T02:40:44.721Z,20.00
2023-02-13T02:43:13.024Z,18.90
2023-02-13T02:45:44.249Z,24.70
2023-02-13T02:48:51.494Z,26.30
2023-02-13T02:51:47.685Z,23.70
2023-02-13T02:54:40.843Z,23.80
2023-02-13T02:57:15.068Z,24.00
2023-02-13T03:00:05.666Z,21.60
2023-02-13T03:02:52.688Z,19.80
2023-02-13T03:05:43.632Z,17.40
2023-02-13T03:08:11.740Z,17.90
2023-02-13T03:10:58.697Z,16.60
2023-02-13T03:13:36.203Z,18.40
2023-02-13T03:16:23.355Z,17.20
2023-02-13T03:19:12.084Z,16.90
2023-02-13T03:22:15.668Z,15.10
2023-02-13T03:27:59.398Z,15.70
2023-02-13T03:30:39.747Z,17.80
2023-02-13T03:33:50.396Z,16.60
2023-02-13T03:37:09.619Z,21.50
2023-02-13T03:39:57.025Z,19.20
2023-02-13T03:42:51.484Z,57.90
2023-02-13T03:45:41.745Z,59.10
2023-02-13T03:48:29.845Z,59.50
2023-02-13T03:50:59.257Z,60.40
2023-02-13T03:53:31.742Z,60.50
2023-02-13T03:56:20.772Z,62.80
2023-02-13T03:59:12.496Z,63.70
2023-02-13T04:01:41.245Z,64.90
2023-02-13T04:04:09.985Z,56.40
2023-02-13T04:06:47.959Z,45.20
2023-02-13T04:09:17.204Z,45.40
2023-02-13T04:11:51.042Z,38.70
2023-02-13T04:14:24.014Z,42.10
2023-02-13T04:16:57.524Z,32.70
2023-02-13T04:19:28.025Z,37.40
2023-02-13T04:22:03.015Z,30.40
2023-02-13T04:24:31.315Z,30.10
2023-02-13T04:26:59.438Z,31.50
2023-02-13T04:29:27.822Z,37.10
2023-02-13T04:31:55.970Z,41.80
2023-02-13T04:34:27.129Z,41.80
2023-02-13T04:36:55.262Z,44.70
2023-02-13T04:39:23.472Z,39.20
2023-02-13T04:41:51.562Z,38.50
2023-02-13T04:44:23.034Z,29.20
2023-02-13T04:46:51.504Z,26.70
2023-02-13T04:49:21.859Z,28.10
2023-02-13T04:51:50.237Z,24.70
2023-02-13T04:54:18.511Z,31.40
2023-02-13T04:56:46.579Z,27.40
2023-02-13T04:59:59.120Z,25.70
2023-02-13T05:02:27.313Z,40.60
2023-02-13T05:04:55.395Z,43.40
2023-02-13T05:07:30.698Z,34.70
2023-02-13T05:09:59.164Z,35.50
2023-02-13T05:12:30.604Z,50.70
2023-02-13T05:15:01.779Z,53.00
2023-02-13T05:17:30.172Z,50.50
2023-02-13T05:20:01.523Z,45.70
2023-02-13T05:22:48.469Z,210.30
2023-02-13T05:25:16.568Z,90.50
2023-02-13T05:27:44.754Z,70.60
2023-02-13T05:30:13.705Z,66.50
2023-02-13T05:32:43.473Z,51.60
2023-02-13T05:35:12.425Z,44.20
2023-02-13T05:37:41.425Z,44.70
2023-02-13T05:40:10.928Z,35.40
2023-02-13T05:42:43.312Z,31.70
2023-02-13T05:45:14.441Z,29.40
2023-02-13T05:47:43.962Z,32.10
2023-02-13T05:50:12.081Z,33.10
2023-02-13T05:52:40.369Z,29.60
2023-02-13T05:55:08.972Z,31.70
2023-02-13T05:57:37.717Z,29.60
2023-02-13T06:00:06.708Z,35.60
2023-02-13T06:02:35.304Z,37.60
2023-02-13T06:05:03.515Z,49.50
2023-02-13T06:07:32.101Z,42.50
2023-02-13T06:10:00.280Z,44.30
2023-02-13T06:12:28.915Z,34.10
2023-02-13T06:14:57.143Z,49.80
2023-02-13T06:17:26.495Z,37.30
2023-02-13T06:19:54.969Z,73.90
2023-02-13T06:22:23.163Z,271.50
2023-02-13T06:24:51.283Z,148.40
2023-02-13T06:27:19.371Z,63.00
2023-02-13T06:29:48.473Z,69.00
2023-02-13T06:32:18.784Z,59.30
2023-02-13T06:34:46.861Z,57.50
2023-02-13T06:37:15.213Z,47.70
2023-02-13T06:39:43.870Z,43.40
2023-02-13T06:42:15.191Z,43.00
2023-02-13T06:44:45.291Z,50.40
2023-02-13T06:47:16.684Z,54.70
2023-02-13T06:49:47.809Z,59.60
2023-02-13T06:52:20.988Z,67.40
2023-02-13T06:54:50.768Z,162.00
2023-02-13T06:57:19.936Z,103.80
2023-02-13T06:59:49.278Z,136.90
2023-02-13T07:02:17.612Z,106.20
2023-02-13T07:04:48.777Z,92.40
2023-02-13T07:07:19.203Z,90.50
2023-02-13T07:09:49.461Z,84.30
2023-02-13T07:12:19.747Z,80.90
2023-02-13T07:14:48.486Z,82.80
2023-02-13T07:17:17.346Z,67.80
2023-02-13T07:19:45.668Z,58.10
2023-02-13T07:22:15.209Z,50.20
2023-02-13T07:24:43.325Z,47.20
2023-02-13T07:27:11.443Z,46.20
2023-02-13T07:29:42.993Z,36.20
2023-02-13T07:32:13.548Z,25.10
2023-02-13T07:34:59.669Z,21.10
2023-02-13T07:37:30.541Z,20.10
2023-02-13T07:39:58.730Z,17.10
2023-02-13T07:42:29.964Z,17.60
2023-02-13T07:44:58.960Z,22.90
2023-02-13T07:47:29.601Z,17.90
2023-02-13T07:49:57.652Z,23.40
2023-02-13T07:52:25.886Z,24.90
2023-02-13T07:54:54.271Z,19.30
2023-02-13T07:57:24.645Z,17.70
2023-02-13T07:59:53.318Z,16.00
2023-02-13T08:02:21.488Z,17.00
2023-02-13T08:04:49.605Z,17.00
2023-02-13T08:07:20.356Z,18.00
2023-02-13T08:10:09.122Z,14.30
2023-02-13T08:12:37.495Z,15.10
2023-02-13T08:15:06.925Z,14.00
2023-02-13T08:17:36.554Z,14.00
2023-02-13T08:20:10.565Z,11.10
2023-02-13T08:22:39.425Z,9.70
2023-02-13T08:25:07.819Z,13.80
2023-02-13T08:27:37.246Z,13.60
2023-02-13T08:30:06.574Z,12.90
2023-02-13T08:32:44.893Z,11.70
2023-02-13T08:35:20.253Z,10.30
2023-02-13T08:37:48.345Z,12.90
2023-02-13T08:40:17.044Z,11.80
2023-02-13T08:42:45.148Z,11.10
2023-02-13T08:45:13.459Z,10.80
2023-02-13T08:47:41.710Z,10.00
2023-02-13T08:50:10.478Z,9.50
2023-02-13T08:52:38.850Z,9.80
2023-02-13T08:55:07.112Z,12.30
2023-02-13T08:57:37.235Z,13.30
2023-02-13T09:00:06.283Z,13.50
2023-02-13T09:02:36.867Z,12.50
2023-02-13T09:05:05.682Z,15.30
2023-02-13T09:07:34.543Z,11.30
2023-02-13T09:10:06.470Z,11.80
2023-02-13T09:12:34.660Z,12.90
2023-02-13T09:15:02.802Z,11.40
2023-02-13T09:17:31.243Z,11.70
2023-02-13T09:19:59.374Z,11.20
2023-02-13T09:22:32.166Z,13.00
2023-02-13T09:25:04.358Z,17.20
2023-02-13T09:27:33.945Z,13.20
2023-02-13T09:30:02.414Z,12.40
2023-02-13T09:32:30.808Z,11.40
2023-02-13T09:34:59.059Z,11.10
2023-02-13T09:37:27.335Z,19.20
2023-02-13T09:39:55.829Z,10.10
2023-02-13T09:42:29.348Z,10.00
2023-02-13T09:45:02.065Z,12.80
2023-02-13T09:47:37.560Z,13.40
2023-02-13T09:50:17.849Z,13.60
2023-02-13T09:52:47.868Z,23.80
2023-02-13T09:55:17.258Z,20.30
2023-02-13T09:57:58.650Z,16.60
2023-02-13T10:00:34.582Z,13.00
2023-02-13T10:03:21.985Z,12.60
2023-02-13T10:06:28.873Z,12.10
2023-02-13T10:08:57.223Z,17.50
2023-02-13T10:11:37.788Z,13.50
2023-02-13T10:14:06.149Z,15.90
2023-02-13T10:16:40.586Z,14.80
2023-02-13T10:19:41.556Z,28.60
2023-02-13T10:22:45.938Z,13.20
2023-02-13T10:25:24.714Z,12.70
2023-02-13T10:28:00.741Z,10.70
2023-02-13T10:30:33.993Z,11.60
2023-02-13T10:33:21.231Z,12.70
2023-02-13T10:36:05.439Z,13.80
2023-02-13T10:38:35.714Z,12.00
2023-02-13T10:41:09.840Z,9.40
2023-02-13T10:43:50.440Z,8.60
2023-02-13T10:46:36.478Z,10.40
2023-02-13T10:49:38.751Z,10.40
2023-02-13T10:52:06.959Z,9.80
2023-02-13T10:55:07.024Z,9.50
2023-02-13T10:57:36.758Z,4.10
2023-02-13T11:00:27.524Z,6.90
2023-02-13T11:02:59.882Z,7.80
2023-02-13T11:05:37.924Z,8.90
2023-02-13T11:08:36.497Z,7.10
2023-02-13T11:11:28.280Z,6.80
2023-02-13T11:14:20.385Z,5.40
2023-02-13T11:17:21.396Z,4.60
2023-02-13T11:19:54.171Z,6.90
2023-02-13T11:22:42.832Z,4.30
2023-02-13T11:25:21.195Z,6.10
2023-02-13T11:27:50.306Z,6.70
2023-02-13T11:30:34.140Z,4.40
2023-02-13T11:35:36.911Z,3.00
2023-02-13T11:38:12.166Z,3.90
2023-02-13T11:40:41.934Z,3.20
2023-02-13T11:43:24.598Z,6.40
2023-02-13T11:46:06.282Z,4.50
2023-02-13T11:48:35.204Z,4.80
2023-02-13T11:51:03.945Z,3.90
2023-02-13T11:53:36.742Z,3.60
2023-02-13T11:56:17.846Z,3.00
2023-02-13T11:58:46.163Z,2.10
2023-02-13T12:01:20.510Z,4.10
2023-02-13T12:04:08.251Z,4.70
2023-02-13T12:06:42.547Z,3.90
2023-02-13T12:09:15.739Z,4.70
2023-02-13T12:11:52.522Z,3.70
2023-02-13T12:14:25.887Z,3.80
2023-02-13T12:17:07.553Z,3.00
2023-02-13T12:19:42.839Z,3.80
2023-02-13T12:22:34.673Z,2.60
2023-02-13T12:25:28.568Z,4.30
2023-02-13T12:35:34.162Z,3.70
2023-02-13T12:38:25.186Z,4.00
2023-02-13T12:41:15.677Z,3.90
2023-02-13T12:44:05.774Z,4.90
2023-02-13T12:46:42.868Z,6.90
2023-02-13T12:49:17.933Z,5.50
2023-02-13T12:52:03.753Z,6.40
2023-02-13T12:54:41.517Z,9.60
2023-02-13T12:57:21.637Z,9.70
2023-02-13T12:59:50.278Z,6.10
2023-02-13T13:03:12.268Z,4.80
2023-02-13T13:05:45.266Z,6.10
2023-02-13T13:08:19.338Z,7.20
2023-02-13T13:11:22.213Z,12.00
2023-02-13T13:14:11.621Z,6.00
2023-02-13T13:16:48.497Z,6.00
2023-02-13T13:19:43.732Z,4.30
2023-02-13T13:22:13.464Z,6.30
2023-02-13T13:25:08.238Z,5.70
2023-02-13T13:27:44.408Z,3.90
2023-02-13T13:30:17.631Z,3.60
2023-02-13T13:32:55.061Z,4.60
2023-02-13T13:35:24.187Z,4.30
2023-02-13T13:38:02.751Z,7.00
2023-02-13T13:40:44.129Z,6.60
2023-02-13T13:43:31.092Z,6.40
2023-02-13T13:46:14.949Z,5.40
2023-02-13T13:49:14.276Z,8.90
2023-02-13T13:51:45.077Z,5.80
2023-02-13T13:56:53.181Z,6.80
2023-02-13T13:59:48.926Z,5.30
2023-02-13T14:02:17.553Z,4.70
2023-02-13T14:05:09.298Z,4.90
2023-02-13T14:07:38.861Z,4.10
2023-02-13T14:10:24.359Z,5.60
2023-02-13T14:12:55.618Z,5.10
2023-02-13T14:15:45.758Z,7.00
2023-02-13T14:18:14.210Z,7.10
2023-02-13T14:20:51.127Z,8.10
2023-02-13T14:23:39.222Z,5.70
2023-02-13T14:26:17.123Z,6.00
2023-02-13T14:28:51.263Z,5.30
2023-02-13T14:31:27.490Z,3.40
2023-02-13T14:34:16.381Z,2.20
2023-02-13T14:36:49.904Z,1.40
2023-02-13T14:39:31.169Z,2.70
2023-02-13T14:42:26.835Z,2.20
2023-02-13T14:44:59.164Z,1.80
2023-02-13T14:47:42.985Z,2.80
2023-02-13T14:50:39.895Z,2.40
2023-02-13T14:53:14.706Z,4.30
2023-02-13T14:55:43.619Z,2.70
2023-02-13T14:58:29.253Z,3.40
2023-02-13T15:01:02.984Z,3.00
2023-02-13T15:03:46.626Z,3.80
2023-02-13T15:06:24.435Z,4.00
2023-02-13T15:08:54.406Z,3.50
2023-02-13T15:11:43.937Z,4.30
2023-02-13T15:14:17.402Z,5.50
2023-02-13T15:16:50.782Z,3.70
2023-02-13T15:19:20.382Z,5.60
2023-02-13T15:21:59.832Z,3.90
2023-02-13T15:24:32.776Z,4.30
2023-02-13T15:27:03.332Z,5.00
2023-02-13T15:29:44.327Z,5.50
2023-02-13T15:32:21.833Z,4.90
2023-02-13T15:34:51.096Z,7.50
2023-02-13T15:37:28.832Z,4.30
2023-02-13T15:40:14.195Z,5.10
2023-02-13T15:42:47.246Z,5.50
2023-02-13T15:45:23.235Z,6.00
2023-02-13T15:47:56.193Z,9.80
2023-02-13T15:50:33.214Z,8.20
2023-02-13T15:53:12.853Z,7.20
2023-02-13T15:55:41.594Z,7.70
2023-02-13T15:58:12.798Z,9.40
2023-02-13T16:00:41.810Z,9.50
2023-02-13T16:03:15.199Z,8.90
2023-02-13T16:05:44.973Z,7.00
2023-02-13T16:08:29.202Z,7.50
2023-02-13T16:11:16.824Z,8.40
2023-02-13T16:13:56.007Z,10.20
2023-02-13T16:16:24.237Z,18.20
2023-02-13T16:18:53.489Z,18.80
2023-02-13T16:21:27.851Z,18.40
2023-02-13T16:24:03.465Z,13.20
2023-02-13T16:26:33.727Z,15.10
2023-02-13T16:29:09.538Z,15.00
2023-02-13T16:31:39.541Z,13.10
2023-02-13T16:34:32.612Z,12.60
2023-02-13T16:37:00.829Z,13.90
2023-02-13T16:39:32.915Z,12.60
2023-02-13T16:42:01.417Z,12.40
2023-02-13T16:44:33.135Z,11.60
2023-02-13T16:47:05.034Z,11.90
2023-02-13T16:49:34.496Z,16.80
2023-02-13T16:52:09.569Z,11.20
2023-02-13T16:54:44.222Z,11.20
2023-02-13T16:57:15.468Z,9.30
2023-02-13T17:00:21.922Z,10.20
2023-02-13T17:02:51.505Z,11.00
2023-02-13T17:05:24.624Z,10.70
2023-02-13T17:07:56.987Z,11.70
2023-02-13T17:10:35.566Z,10.40
2023-02-13T17:13:13.431Z,8.90
2023-02-13T17:18:00.195Z,11.80
2023-02-13T17:20:32.604Z,11.90
2023-02-13T17:23:03.898Z,10.50
2023-02-13T17:25:34.274Z,8.60
2023-02-13T17:28:07.241Z,9.20
2023-02-13T17:30:37.301Z,10.30
2023-02-13T17:33:18.388Z,8.60
2023-02-13T17:35:46.784Z,7.70
2023-02-13T17:38:21.918Z,8.60
2023-02-13T17:40:52.334Z,7.70
2023-02-13T17:43:21.818Z,6.80
2023-02-13T17:45:50.129Z,7.20
2023-02-13T17:48:19.898Z,8.50
2023-02-13T17:50:52.187Z,11.30
2023-02-13T17:53:24.874Z,9.00
2023-02-13T17:55:54.662Z,11.70
2023-02-13T17:58:23.292Z,11.40
2023-02-13T18:00:58.340Z,7.40
2023-02-13T18:03:26.954Z,6.40
2023-02-13T18:05:57.346Z,10.00
2023-02-13T18:08:27.325Z,13.30
2023-02-13T18:10:57.894Z,13.80
2023-02-13T18:13:26.156Z,23.00
2023-02-13T18:15:54.467Z,21.50
2023-02-13T18:26:09.513Z,22.60
2023-02-13T18:28:40.007Z,21.60
2023-02-13T18:31:11.813Z,21.10
2023-02-13T18:33:42.695Z,21.40
2023-02-13T18:36:11.047Z,18.70
2023-02-13T18:38:39.458Z,23.10
2023-02-13T18:41:07.868Z,24.90
2023-02-13T18:43:36.203Z,21.30
2023-02-13T18:46:05.232Z,14.90
2023-02-13T18:48:34.949Z,14.60
2023-02-13T18:51:03.329Z,10.20
2023-02-13T18:53:34.805Z,11.40
2023-02-13T18:56:04.883Z,11.40
2023-02-13T18:58:33.872Z,10.70
2023-02-13T19:01:14.619Z,10.60
2023-02-13T19:03:46.042Z,10.00
2023-02-13T19:06:15.973Z,15.10
2023-02-13T19:08:44.394Z,16.30
2023-02-13T19:11:24.572Z,15.80
2023-02-13T19:13:56.972Z,13.80
2023-02-13T19:16:25.704Z,12.10
2023-02-13T19:18:55.661Z,8.90
2023-02-13T19:21:26.809Z,9.10
2023-02-13T19:23:57.976Z,11.60
2023-02-13T19:26:26.927Z,12.20
2023-02-13T19:28:56.749Z,9.90
2023-02-13T19:31:28.686Z,9.90
2023-02-13T19:34:00.859Z,9.20
2023-02-13T19:36:30.463Z,8.20
2023-02-13T19:39:00.918Z,7.90
2023-02-13T19:41:29.377Z,11.80
2023-02-13T19:43:58.591Z,10.10
2023-02-13T19:46:31.513Z,8.70
2023-02-13T19:49:00.372Z,9.50
2023-02-13T19:51:31.078Z,7.80
2023-02-13T19:54:04.346Z,7.30
2023-02-13T19:56:34.927Z,6.80
2023-02-13T19:59:04.714Z,5.00
2023-02-13T20:01:33.849Z,5.70
2023-02-13T20:04:02.303Z,6.80
2023-02-13T20:06:40.507Z,6.50
2023-02-13T20:09:12.403Z,6.30
2023-02-13T20:11:43.394Z,6.20
2023-02-13T20:14:15.287Z,7.60
2023-02-13T20:16:51.940Z,5.60
2023-02-13T20:19:42.394Z,4.70
2023-02-13T20:22:16.632Z,5.60
2023-02-13T20:24:46.478Z,8.50
2023-02-13T20:27:17.292Z,7.50
2023-02-13T20:29:46.611Z,5.10
2023-02-13T20:32:15.214Z,5.40
2023-02-13T20:34:59.005Z,4.50
2023-02-13T20:37:28.978Z,6.90
2023-02-13T20:39:57.538Z,5.00
2023-02-13T20:42:25.611Z,5.90
2023-02-13T20:45:00.687Z,5.60
2023-02-13T20:47:34.126Z,5.10
2023-02-13T20:50:03.633Z,3.90
2023-02-13T20:52:32.993Z,2.10
2023-02-13T20:55:04.203Z,2.60
2023-02-13T20:57:33.974Z,3.50
2023-02-13T21:00:04.921Z,3.20
2023-02-13T21:02:36.339Z,4.40
2023-02-13T21:05:04.915Z,3.90
2023-02-13T21:07:33.329Z,4.20
2023-02-13T21:10:02.523Z,4.60
2023-02-13T21:12:32.198Z,5.40
2023-02-13T21:15:02.486Z,5.20
2023-02-13T21:17:34.119Z,5.90
2023-02-13T21:20:05.659Z,6.50
2023-02-13T21:22:33.919Z,4.60
2023-02-13T21:25:02.188Z,7.80
2023-02-13T21:27:34.718Z,6.90
2023-02-13T21:30:07.298Z,7.30
2023-02-13T21:32:37.347Z,6.20
2023-02-13T21:35:08.329Z,6.60
2023-02-13T21:37:40.895Z,5.80
2023-02-13T21:46:25.879Z,3.70
2023-02-13T21:48:58.105Z,4.50
2023-02-13T21:51:30.826Z,7.30
2023-02-13T21:54:01.973Z,7.80
2023-02-13T21:56:35.995Z,4.80
2023-02-13T21:59:07.061Z,6.20
2023-02-13T22:01:48.409Z,4.20
2023-02-13T22:04:19.932Z,4.20
2023-02-13T22:06:51.688Z,3.80
2023-02-13T22:09:25.427Z,7.90
2023-02-13T22:14:25.785Z,4.80
2023-02-13T22:16:56.428Z,5.10
2023-02-13T22:19:26.781Z,5.10
2023-02-13T22:21:54.917Z,7.40
2023-02-13T22:24:27.858Z,4.70
2023-02-13T22:27:01.121Z,5.00
2023-02-13T22:29:29.583Z,4.50
2023-02-13T22:32:01.114Z,5.00
2023-02-13T22:34:35.326Z,4.30
2023-02-13T22:37:06.590Z,7.60
2023-02-13T22:39:36.890Z,4.10
2023-02-13T22:42:05.504Z,5.10
2023-02-13T22:44:36.755Z,5.20
2023-02-13T22:47:07.299Z,5.70
2023-02-13T22:49:37.870Z,5.50
2023-02-13T22:52:12.765Z,4.70
2023-02-13T22:54:46.077Z,4.60
2023-02-13T22:57:14.236Z,7.40
2023-02-13T22:59:44.668Z,5.50
2023-02-13T23:02:13.386Z,5.40
2023-02-13T23:04:41.881Z,5.50
2023-02-13T23:07:12.335Z,6.60
2023-02-13T23:09:41.374Z,5.70
2023-02-13T23:12:39.197Z,5.50
2023-02-13T23:15:12.975Z,6.10
2023-02-13T23:18:02.753Z,7.00
2023-02-13T23:20:33.399Z,6.40
2023-02-13T23:23:03.186Z,5.60
2023-02-13T23:25:32.758Z,5.50
2023-02-13T23:28:03.908Z,4.10
2023-02-13T23:30:35.003Z,5.50
2023-02-13T23:33:05.535Z,5.30
2023-02-13T23:35:33.661Z,5.20
2023-02-13T23:38:02.278Z,5.70
2023-02-13T23:40:31.877Z,4.00
2023-02-13T23:43:04.747Z,3.40
2023-02-13T23:45:33.480Z,3.60
2023-02-13T23:48:06.532Z,2.90
2023-02-13T23:50:45.873Z,2.40
2023-02-13T23:53:14.045Z,4.10
2023-02-13T23:55:42.068Z,3.40
2023-02-13T23:58:12.394Z,3.50
